Terminal Aerodrome Forecast
Issued by NWS

Home | Current Version | Previous Version | Text Only | Print | Product List | Glossary On
Versions: 1 2 3 4 5 6 7 8 9 10 11 12 13 14 15 16 17 18 19 20
814
FTUS43 KEAX 181047 AAB
TAFMKC
TAF AMD
KMKC 181047Z 1811/1906 08008KT 6SM BR OVC005
      TEMPO 1811/1814 5SM BR BKN003
     FM181500 14006KT 6SM BR OVC010
     FM181800 15008KT 6SM -RA VCTS SCT010CB BKN015
      TEMPO 1818/1822 3SM -TSRA OVC010CB
     FM182200 17008KT P6SM BKN035=

USA.gov is the U.S. government's official web portal to all federal, state and local government web resources and services.